Korla, China
Current Conditions -  °F | °C
As of 10:00 AM on Sunday 26 Oct 2014 (Local Time) from ZWWW Reporting Station
Smoke Smoke  
Wind Chill: 54°   Ceiling: Unl
Heat Index: 54°   Visibility: 1.8mi
Dew Point: 41°   Wind: 4mph
Humidity: 62%   Direction: 160°SSE
Pressure: 30.03"   Gusts: NA
Location:  41.73°N, 86.15°E
Report Text: ZWWW 260200Z 16002MPS 100V210 3000 FU NSC 12/05 Q1017 NOSIG
Loading
Personal Weather Stations






























Interactive Weather Map
Tropical Storm Tracking
New forecast layout! Learn more

10-Day Weather Forecast

Advertisements
Track Severe Weather on mobile